sensor_id;sensor_type;location;lat;lon;timestamp;pressure;altitude;pressure_sealevel;temperature;humidity
5298;BME280;14738;42.668;23.250;2023-05-14T00:01:07;48414.13;;;-141.90;56.31
5298;BME280;14738;42.668;23.250;2023-05-14T00:03:32;48432.00;;;-141.90;53.29
5298;BME280;14738;42.668;23.250;2023-05-14T00:05:58;48414.13;;;-141.90;53.46
5298;BME280;14738;42.668;23.250;2023-05-14T00:08:23;48396.25;;;-141.90;53.47
5298;BME280;14738;42.668;23.250;2023-05-14T00:10:48;48406.19;;;-141.90;52.73
5298;BME280;14738;42.668;23.250;2023-05-14T00:13:14;48390.31;;;-141.90;54.21
5298;BME280;14738;42.668;23.250;2023-05-14T00:15:39;48422.06;;;-141.90;54.42
5298;BME280;14738;42.668;23.250;2023-05-14T00:18:05;48406.19;;;-141.90;54.08
5298;BME280;14738;42.668;23.250;2023-05-14T00:20:31;48392.28;;;-141.90;53.81
5298;BME280;14738;42.668;23.250;2023-05-14T00:22:56;48418.09;;;-141.90;53.64
5298;BME280;14738;42.668;23.250;2023-05-14T00:25:22;48410.16;;;-141.90;53.59
5298;BME280;14738;42.668;23.250;2023-05-14T00:27:47;48408.16;;;-141.90;54.02
5298;BME280;14738;42.668;23.250;2023-05-14T00:30:12;48412.13;;;-141.90;55.16
5298;BME280;14738;42.668;23.250;2023-05-14T00:32:38;48386.34;;;-141.90;54.99
5298;BME280;14738;42.668;23.250;2023-05-14T00:35:03;48406.19;;;-141.90;56.43
5298;BME280;14738;42.668;23.250;2023-05-14T00:37:29;48396.25;;;-141.90;56.33
5298;BME280;14738;42.668;23.250;2023-05-14T00:39:54;48418.09;;;-141.90;56.16
5298;BME280;14738;42.668;23.250;2023-05-14T00:42:20;48388.31;;;-141.90;55.93
5298;BME280;14738;42.668;23.250;2023-05-14T00:44:45;48410.16;;;-141.90;55.85
5298;BME280;14738;42.668;23.250;2023-05-14T00:47:11;48410.16;;;-141.90;58.29
5298;BME280;14738;42.668;23.250;2023-05-14T00:49:37;48398.25;;;-141.90;58.37
5298;BME280;14738;42.668;23.250;2023-05-14T00:52:04;48420.09;;;-141.90;57.69
5298;BME280;14738;42.668;23.250;2023-05-14T00:54:30;48406.19;;;-141.90;59.08
5298;BME280;14738;42.668;23.250;2023-05-14T00:56:56;48408.16;;;-141.90;60.23
5298;BME280;14738;42.668;23.250;2023-05-14T00:59:22;48433.97;;;-141.90;60.78
5298;BME280;14738;42.668;23.250;2023-05-14T01:01:47;48406.19;;;-141.90;62.51
5298;BME280;14738;42.668;23.250;2023-05-14T01:04:13;48430.00;;;-141.90;61.63
5298;BME280;14738;42.668;23.250;2023-05-14T01:09:50;48402.22;;;-141.90;63.37
5298;BME280;14738;42.668;23.250;2023-05-14T01:15:23;48400.22;;;-141.90;62.67
5298;BME280;14738;42.668;23.250;2023-05-14T01:17:58;48437.94;;;-141.90;63.43
5298;BME280;14738;42.668;23.250;2023-05-14T01:20:25;48418.09;;;-141.90;64.82
5298;BME280;14738;42.668;23.250;2023-05-14T01:22:51;48388.31;;;-141.90;63.00
5298;BME280;14738;42.668;23.250;2023-05-14T01:25:16;48404.19;;;-141.90;62.98
5298;BME280;14738;42.668;23.250;2023-05-14T01:32:50;48414.13;;;-141.90;59.05
5298;BME280;14738;42.668;23.250;2023-05-14T01:35:20;48396.25;;;-141.90;56.65
5298;BME280;14738;42.668;23.250;2023-05-14T01:37:47;48410.16;;;-141.90;54.74
5298;BME280;14738;42.668;23.250;2023-05-14T01:40:13;48390.31;;;-141.90;53.44
5298;BME280;14738;42.668;23.250;2023-05-14T01:42:40;48414.13;;;-141.90;53.60
5298;BME280;14738;42.668;23.250;2023-05-14T01:45:07;48392.28;;;-141.90;51.23
5298;BME280;14738;42.668;23.250;2023-05-14T01:47:32;48406.19;;;-141.90;51.94
5298;BME280;14738;42.668;23.250;2023-05-14T01:49:58;48394.28;;;-141.90;51.35
5298;BME280;14738;42.668;23.250;2023-05-14T01:52:23;48410.16;;;-141.90;51.11
5298;BME280;14738;42.668;23.250;2023-05-14T01:54:48;48406.19;;;-141.90;50.32
5298;BME280;14738;42.668;23.250;2023-05-14T01:57:14;48394.28;;;-141.90;51.62
5298;BME280;14738;42.668;23.250;2023-05-14T01:59:39;48404.19;;;-141.90;49.09
5298;BME280;14738;42.668;23.250;2023-05-14T02:02:05;48410.16;;;-141.90;48.81
5298;BME280;14738;42.668;23.250;2023-05-14T02:04:30;48420.09;;;-141.90;48.55
5298;BME280;14738;42.668;23.250;2023-05-14T02:06:55;48398.25;;;-141.90;49.04
5298;BME280;14738;42.668;23.250;2023-05-14T02:09:21;48378.38;;;-141.90;49.60
5298;BME280;14738;42.668;23.250;2023-05-14T02:11:46;48402.22;;;-141.90;47.19
5298;BME280;14738;42.668;23.250;2023-05-14T02:14:11;48400.22;;;-141.90;48.25
5298;BME280;14738;42.668;23.250;2023-05-14T02:16:37;48414.13;;;-141.90;49.47
5298;BME280;14738;42.668;23.250;2023-05-14T02:19:02;48416.09;;;-141.90;49.14
5298;BME280;14738;42.668;23.250;2023-05-14T02:21:28;48334.72;;;-141.90;48.53
5298;BME280;14738;42.668;23.250;2023-05-14T02:23:53;48410.16;;;-141.90;48.79
5298;BME280;14738;42.668;23.250;2023-05-14T02:26:20;48398.25;;;-141.90;50.13
5298;BME280;14738;42.668;23.250;2023-05-14T02:28:45;48406.19;;;-141.90;50.29
5298;BME280;14738;42.668;23.250;2023-05-14T02:31:11;48398.25;;;-141.90;50.63
5298;BME280;14738;42.668;23.250;2023-05-14T02:33:36;48370.44;;;-141.90;48.08
5298;BME280;14738;42.668;23.250;2023-05-14T02:36:01;48412.13;;;-141.90;47.36
5298;BME280;14738;42.668;23.250;2023-05-14T02:38:27;48394.28;;;-141.90;47.88
5298;BME280;14738;42.668;23.250;2023-05-14T02:40:52;48412.13;;;-141.90;48.57
5298;BME280;14738;42.668;23.250;2023-05-14T02:43:17;48402.22;;;-141.90;47.49
5298;BME280;14738;42.668;23.250;2023-05-14T02:45:43;48420.09;;;-141.90;46.45
5298;BME280;14738;42.668;23.250;2023-05-14T02:48:08;48420.09;;;-141.90;47.13
5298;BME280;14738;42.668;23.250;2023-05-14T02:50:34;48402.22;;;-141.90;47.06
5298;BME280;14738;42.668;23.250;2023-05-14T02:52:59;48424.06;;;-141.90;49.44
5298;BME280;14738;42.668;23.250;2023-05-14T02:55:26;48404.19;;;-141.90;46.78
5298;BME280;14738;42.668;23.250;2023-05-14T02:57:51;48410.16;;;-141.90;46.89
5298;BME280;14738;42.668;23.250;2023-05-14T03:00:18;48402.22;;;-141.90;46.31
5298;BME280;14738;42.668;23.250;2023-05-14T03:02:43;48402.22;;;-141.90;46.45
5298;BME280;14738;42.668;23.250;2023-05-14T03:05:08;48420.09;;;-141.90;46.70
5298;BME280;14738;42.668;23.250;2023-05-14T03:07:34;48404.19;;;-141.90;49.17
5298;BME280;14738;42.668;23.250;2023-05-14T03:09:59;48380.38;;;-141.90;47.90
5298;BME280;14738;42.668;23.250;2023-05-14T03:12:25;48400.22;;;-141.90;45.73
5298;BME280;14738;42.668;23.250;2023-05-14T03:14:50;48378.38;;;-141.90;46.35
5298;BME280;14738;42.668;23.250;2023-05-14T03:17:16;48422.06;;;-141.90;46.54
5298;BME280;14738;42.668;23.250;2023-05-14T03:19:41;48386.34;;;-141.90;47.71
5298;BME280;14738;42.668;23.250;2023-05-14T03:22:07;48386.34;;;-141.90;48.05
5298;BME280;14738;42.668;23.250;2023-05-14T03:24:32;48386.34;;;-141.90;49.43
5298;BME280;14738;42.668;23.250;2023-05-14T03:26:57;48402.22;;;-141.90;49.56
5298;BME280;14738;42.668;23.250;2023-05-14T03:29:23;48418.09;;;-141.90;49.69
5298;BME280;14738;42.668;23.250;2023-05-14T03:31:48;48402.22;;;-141.90;50.46
5298;BME280;14738;42.668;23.250;2023-05-14T03:34:14;48400.22;;;-141.90;50.20
5298;BME280;14738;42.668;23.250;2023-05-14T03:36:40;48392.28;;;-141.90;51.37
5298;BME280;14738;42.668;23.250;2023-05-14T03:39:05;48394.28;;;-141.90;50.87
5298;BME280;14738;42.668;23.250;2023-05-14T03:41:34;48396.25;;;-141.90;50.97
5298;BME280;14738;42.668;23.250;2023-05-14T03:44:00;48398.25;;;-141.90;51.52
5298;BME280;14738;42.668;23.250;2023-05-14T03:46:25;48380.38;;;-141.90;51.08
5298;BME280;14738;42.668;23.250;2023-05-14T03:48:51;48314.88;;;-141.90;51.28
5298;BME280;14738;42.668;23.250;2023-05-14T03:51:16;48390.31;;;-141.90;51.13
5298;BME280;14738;42.668;23.250;2023-05-14T03:53:41;48378.38;;;-141.90;51.11
5298;BME280;14738;42.668;23.250;2023-05-14T03:56:07;48394.28;;;-141.90;51.65
5298;BME280;14738;42.668;23.250;2023-05-14T03:58:32;48384.34;;;-141.90;51.72
5298;BME280;14738;42.668;23.250;2023-05-14T04:00:58;48388.31;;;-141.90;51.83
5298;BME280;14738;42.668;23.250;2023-05-14T04:03:24;48400.22;;;-141.90;51.82
5298;BME280;14738;42.668;23.250;2023-05-14T04:05:50;48386.34;;;-141.90;52.10
5298;BME280;14738;42.668;23.250;2023-05-14T04:08:15;48422.06;;;-141.90;52.19
5298;BME280;14738;42.668;23.250;2023-05-14T04:10:41;48400.22;;;-141.90;52.29
5298;BME280;14738;42.668;23.250;2023-05-14T04:13:07;48406.19;;;-141.90;52.58
5298;BME280;14738;42.668;23.250;2023-05-14T04:15:32;48374.41;;;-141.90;53.11
5298;BME280;14738;42.668;23.250;2023-05-14T04:17:59;48422.06;;;-141.90;52.66
5298;BME280;14738;42.668;23.250;2023-05-14T04:20:25;48380.38;;;-141.90;51.82
5298;BME280;14738;42.668;23.250;2023-05-14T04:22:51;48416.09;;;-141.90;51.58
5298;BME280;14738;42.668;23.250;2023-05-14T04:25:16;48388.31;;;-141.90;50.60
5298;BME280;14738;42.668;23.250;2023-05-14T04:27:42;48398.25;;;-141.90;50.71
5298;BME280;14738;42.668;23.250;2023-05-14T04:30:08;48398.25;;;-141.90;51.23
5298;BME280;14738;42.668;23.250;2023-05-14T04:32:34;48410.16;;;-141.90;51.01
5298;BME280;14738;42.668;23.250;2023-05-14T04:34:59;48398.25;;;-141.90;52.13
5298;BME280;14738;42.668;23.250;2023-05-14T04:37:25;48380.38;;;-141.90;53.66
5298;BME280;14738;42.668;23.250;2023-05-14T04:39:50;48398.25;;;-141.90;54.04
5298;BME280;14738;42.668;23.250;2023-05-14T04:42:15;48420.09;;;-141.90;54.65
5298;BME280;14738;42.668;23.250;2023-05-14T04:44:44;48410.16;;;-141.90;55.26
5298;BME280;14738;42.668;23.250;2023-05-14T04:47:09;48428.03;;;-141.90;57.19
5298;BME280;14738;42.668;23.250;2023-05-14T04:49:34;48384.34;;;-141.90;61.46
5298;BME280;14738;42.668;23.250;2023-05-14T04:52:00;48418.09;;;-141.90;61.97
5298;BME280;14738;42.668;23.250;2023-05-14T04:54:25;48404.19;;;-141.90;62.80
5298;BME280;14738;42.668;23.250;2023-05-14T04:56:51;48433.97;;;-141.90;66.81
5298;BME280;14738;42.668;23.250;2023-05-14T04:59:16;48398.25;;;-141.90;73.52
5298;BME280;14738;42.668;23.250;2023-05-14T05:01:42;48386.34;;;-141.90;83.18
5298;BME280;14738;42.668;23.250;2023-05-14T05:04:07;48398.25;;;-141.90;90.32
5298;BME280;14738;42.668;23.250;2023-05-14T05:06:32;48402.22;;;-141.90;95.36
5298;BME280;14738;42.668;23.250;2023-05-14T05:08:58;48416.09;;;-141.90;97.01
5298;BME280;14738;42.668;23.250;2023-05-14T05:11:23;48414.13;;;-141.90;97.00
5298;BME280;14738;42.668;23.250;2023-05-14T05:13:49;48400.22;;;-141.90;96.97
5298;BME280;14738;42.668;23.250;2023-05-14T05:19:36;48400.22;;;-141.90;98.50
5298;BME280;14738;42.668;23.250;2023-05-14T05:22:01;48410.16;;;-141.90;98.52
5298;BME280;14738;42.668;23.250;2023-05-14T05:42:41;48388.31;;;-141.90;100.00
5298;BME280;14738;42.668;23.250;2023-05-14T05:45:07;48433.97;;;-141.90;100.00
5298;BME280;14738;42.668;23.250;2023-05-14T05:47:32;48422.06;;;-141.90;100.00
5298;BME280;14738;42.668;23.250;2023-05-14T05:49:58;48394.28;;;-141.90;100.00
5298;BME280;14738;42.668;23.250;2023-05-14T05:52:23;48406.19;;;-141.90;100.00
5298;BME280;14738;42.668;23.250;2023-05-14T05:54:49;48414.13;;;-141.90;100.00
5298;BME280;14738;42.668;23.250;2023-05-14T05:57:14;48412.13;;;-141.90;100.00
5298;BME280;14738;42.668;23.250;2023-05-14T05:59:39;48432.00;;;-141.90;100.00
5298;BME280;14738;42.668;23.250;2023-05-14T06:42:17;48408.16;;;-141.90;100.00
5298;BME280;14738;42.668;23.250;2023-05-14T06:44:43;48426.03;;;-141.90;100.00
5298;BME280;14738;42.668;23.250;2023-05-14T06:47:09;48422.06;;;-141.90;100.00
5298;BME280;14738;42.668;23.250;2023-05-14T06:49:35;48418.09;;;-141.90;100.00
5298;BME280;14738;42.668;23.250;2023-05-14T06:52:00;48410.16;;;-141.90;100.00
5298;BME280;14738;42.668;23.250;2023-05-14T06:54:26;48416.09;;;-141.90;100.00
5298;BME280;14738;42.668;23.250;2023-05-14T06:56:51;48428.03;;;-141.90;100.00
5298;BME280;14738;42.668;23.250;2023-05-14T06:59:16;48410.16;;;-141.90;100.00
5298;BME280;14738;42.668;23.250;2023-05-14T07:01:42;48426.03;;;-141.90;100.00
5298;BME280;14738;42.668;23.250;2023-05-14T07:04:07;48400.22;;;-141.90;100.00
5298;BME280;14738;42.668;23.250;2023-05-14T07:06:32;48398.25;;;-141.90;100.00
5298;BME280;14738;42.668;23.250;2023-05-14T07:08:59;48394.28;;;-141.90;100.00
5298;BME280;14738;42.668;23.250;2023-05-14T07:11:25;48414.13;;;-141.90;100.00
5298;BME280;14738;42.668;23.250;2023-05-14T07:13:50;48400.22;;;-141.90;100.00
5298;BME280;14738;42.668;23.250;2023-05-14T07:16:16;48402.22;;;-141.90;100.00
5298;BME280;14738;42.668;23.250;2023-05-14T07:18:41;48410.16;;;-141.90;100.00
5298;BME280;14738;42.668;23.250;2023-05-14T07:21:06;48370.44;;;-141.90;100.00
5298;BME280;14738;42.668;23.250;2023-05-14T07:23:32;48449.84;;;-141.90;100.00
5298;BME280;14738;42.668;23.250;2023-05-14T07:26:00;48426.03;;;-141.90;100.00
5298;BME280;14738;42.668;23.250;2023-05-14T07:28:25;48390.31;;;-141.90;100.00
5298;BME280;14738;42.668;23.250;2023-05-14T07:30:51;48410.16;;;-141.90;100.00
5298;BME280;14738;42.668;23.250;2023-05-14T07:33:16;48410.16;;;-141.90;100.00
5298;BME280;14738;42.668;23.250;2023-05-14T07:35:41;48437.94;;;-141.90;100.00
5298;BME280;14738;42.668;23.250;2023-05-14T07:38:07;48408.16;;;-141.90;100.00
5298;BME280;14738;42.668;23.250;2023-05-14T07:40:32;48432.00;;;-141.90;100.00
5298;BME280;14738;42.668;23.250;2023-05-14T07:42:57;48430.00;;;-141.90;100.00
5298;BME280;14738;42.668;23.250;2023-05-14T07:45:23;48439.94;;;-141.90;100.00
5298;BME280;14738;42.668;23.250;2023-05-14T07:47:48;48430.00;;;-141.90;100.00
5298;BME280;14738;42.668;23.250;2023-05-14T07:50:19;48406.19;;;-141.90;100.00
5298;BME280;14738;42.668;23.250;2023-05-14T07:52:44;48422.06;;;-141.90;100.00
5298;BME280;14738;42.668;23.250;2023-05-14T07:55:11;48412.13;;;-141.90;100.00
5298;BME280;14738;42.668;23.250;2023-05-14T07:57:37;48396.25;;;-141.90;100.00
5298;BME280;14738;42.668;23.250;2023-05-14T08:00:03;48430.00;;;-141.90;100.00
5298;BME280;14738;42.668;23.250;2023-05-14T08:02:32;48408.16;;;-141.90;100.00
5298;BME280;14738;42.668;23.250;2023-05-14T08:04:57;48410.16;;;-141.90;100.00
5298;BME280;14738;42.668;23.250;2023-05-14T08:07:22;48430.00;;;-141.90;100.00
5298;BME280;14738;42.668;23.250;2023-05-14T08:09:48;48390.31;;;-141.90;100.00
5298;BME280;14738;42.668;23.250;2023-05-14T08:12:14;48424.06;;;-141.90;100.00
5298;BME280;14738;42.668;23.250;2023-05-14T08:14:40;48408.16;;;-141.90;100.00
5298;BME280;14738;42.668;23.250;2023-05-14T08:17:05;48424.06;;;-141.90;100.00
5298;BME280;14738;42.668;23.250;2023-05-14T08:19:31;48418.09;;;-141.90;100.00
5298;BME280;14738;42.668;23.250;2023-05-14T08:21:57;48426.03;;;-141.90;100.00
5298;BME280;14738;42.668;23.250;2023-05-14T08:24:22;48398.25;;;-141.90;100.00
5298;BME280;14738;42.668;23.250;2023-05-14T08:26:47;48433.97;;;-141.90;100.00
5298;BME280;14738;42.668;23.250;2023-05-14T08:29:13;48451.84;;;-141.90;100.00
5298;BME280;14738;42.668;23.250;2023-05-14T08:31:38;48432.00;;;-141.90;100.00
5298;BME280;14738;42.668;23.250;2023-05-14T08:34:04;48410.16;;;-141.90;100.00
5298;BME280;14738;42.668;23.250;2023-05-14T08:36:30;48426.03;;;-141.90;100.00
5298;BME280;14738;42.668;23.250;2023-05-14T08:38:55;48433.97;;;-141.90;100.00
5298;BME280;14738;42.668;23.250;2023-05-14T08:41:21;48406.19;;;-141.90;100.00
5298;BME280;14738;42.668;23.250;2023-05-14T08:44:06;48416.09;;;-141.90;100.00
5298;BME280;14738;42.668;23.250;2023-05-14T08:46:35;48390.31;;;-141.90;100.00
5298;BME280;14738;42.668;23.250;2023-05-14T08:51:51;48406.19;;;-141.90;100.00
5298;BME280;14738;42.668;23.250;2023-05-14T08:54:17;48398.25;;;-141.90;100.00
5298;BME280;14738;42.668;23.250;2023-05-14T08:56:44;48432.00;;;-141.90;100.00
5298;BME280;14738;42.668;23.250;2023-05-14T08:59:12;48410.16;;;-141.90;100.00
5298;BME280;14738;42.668;23.250;2023-05-14T09:01:40;48437.94;;;-141.90;100.00
5298;BME280;14738;42.668;23.250;2023-05-14T09:04:08;48430.00;;;-141.90;100.00
5298;BME280;14738;42.668;23.250;2023-05-14T09:06:37;48410.16;;;-141.90;100.00
5298;BME280;14738;42.668;23.250;2023-05-14T09:09:03;48402.22;;;-141.90;100.00
5298;BME280;14738;42.668;23.250;2023-05-14T09:11:28;48404.19;;;-141.90;100.00
5298;BME280;14738;42.668;23.250;2023-05-14T09:13:54;48430.00;;;-141.90;100.00
5298;BME280;14738;42.668;23.250;2023-05-14T09:16:20;48410.16;;;-141.90;100.00
5298;BME280;14738;42.668;23.250;2023-05-14T09:18:46;48400.22;;;-141.90;100.00
5298;BME280;14738;42.668;23.250;2023-05-14T09:21:14;48422.06;;;-141.90;100.00
5298;BME280;14738;42.668;23.250;2023-05-14T09:23:43;48437.94;;;-141.90;100.00
5298;BME280;14738;42.668;23.250;2023-05-14T09:26:15;48426.03;;;-141.90;100.00
5298;BME280;14738;42.668;23.250;2023-05-14T09:28:42;48396.25;;;-141.90;100.00
5298;BME280;14738;42.668;23.250;2023-05-14T09:31:08;48410.16;;;-141.90;100.00
5298;BME280;14738;42.668;23.250;2023-05-14T09:33:33;48398.25;;;-141.90;100.00
5298;BME280;14738;42.668;23.250;2023-05-14T09:36:00;48416.09;;;-141.90;100.00
5298;BME280;14738;42.668;23.250;2023-05-14T09:38:31;48408.16;;;-141.90;100.00
5298;BME280;14738;42.668;23.250;2023-05-14T09:40:58;48433.97;;;-141.90;100.00
5298;BME280;14738;42.668;23.250;2023-05-14T09:43:23;48433.97;;;-141.90;100.00
5298;BME280;14738;42.668;23.250;2023-05-14T09:45:49;48362.50;;;-141.90;100.00
5298;BME280;14738;42.668;23.250;2023-05-14T09:48:14;48416.09;;;-141.90;100.00
5298;BME280;14738;42.668;23.250;2023-05-14T09:50:44;48398.25;;;-141.90;100.00
5298;BME280;14738;42.668;23.250;2023-05-14T09:53:11;48422.06;;;-141.90;100.00
5298;BME280;14738;42.668;23.250;2023-05-14T09:55:37;48420.09;;;-141.90;100.00
5298;BME280;14738;42.668;23.250;2023-05-14T09:58:03;48402.22;;;-141.90;100.00
5298;BME280;14738;42.668;23.250;2023-05-14T10:00:30;48414.13;;;-141.90;100.00
5298;BME280;14738;42.668;23.250;2023-05-14T10:02:57;48410.16;;;-141.90;100.00
5298;BME280;14738;42.668;23.250;2023-05-14T10:05:23;48412.13;;;-141.90;100.00
5298;BME280;14738;42.668;23.250;2023-05-14T10:07:50;48428.03;;;-141.90;100.00
5298;BME280;14738;42.668;23.250;2023-05-14T10:10:23;48402.22;;;-141.90;100.00
5298;BME280;14738;42.668;23.250;2023-05-14T10:12:55;48402.22;;;-141.90;100.00
5298;BME280;14738;42.668;23.250;2023-05-14T10:15:37;48426.03;;;-141.90;100.00
5298;BME280;14738;42.668;23.250;2023-05-14T10:18:09;48422.06;;;-141.90;100.00
5298;BME280;14738;42.668;23.250;2023-05-14T10:20:36;48422.06;;;-141.90;100.00
5298;BME280;14738;42.668;23.250;2023-05-14T10:23:02;48416.09;;;-141.90;100.00
5298;BME280;14738;42.668;23.250;2023-05-14T10:25:28;48414.13;;;-141.90;100.00
5298;BME280;14738;42.668;23.250;2023-05-14T10:27:54;48388.31;;;-141.90;100.00
5298;BME280;14738;42.668;23.250;2023-05-14T10:30:20;48416.09;;;-141.90;100.00
5298;BME280;14738;42.668;23.250;2023-05-14T10:33:04;48410.16;;;-141.90;100.00
5298;BME280;14738;42.668;23.250;2023-05-14T10:38:23;48406.19;;;-141.90;100.00
5298;BME280;14738;42.668;23.250;2023-05-14T10:40:54;48443.91;;;-141.90;100.00
5298;BME280;14738;42.668;23.250;2023-05-14T10:43:20;48422.06;;;-141.90;100.00
5298;BME280;14738;42.668;23.250;2023-05-14T10:45:47;48418.09;;;-141.90;100.00
5298;BME280;14738;42.668;23.250;2023-05-14T10:48:13;48428.03;;;-141.90;100.00
5298;BME280;14738;42.668;23.250;2023-05-14T10:50:40;48404.19;;;-141.90;100.00
5298;BME280;14738;42.668;23.250;2023-05-14T10:53:10;48426.03;;;-141.90;100.00
5298;BME280;14738;42.668;23.250;2023-05-14T10:55:37;48412.13;;;-141.90;100.00
5298;BME280;14738;42.668;23.250;2023-05-14T10:58:03;48420.09;;;-141.90;100.00
5298;BME280;14738;42.668;23.250;2023-05-14T11:00:28;48420.09;;;-141.90;100.00
5298;BME280;14738;42.668;23.250;2023-05-14T11:02:57;48420.09;;;-141.90;100.00
5298;BME280;14738;42.668;23.250;2023-05-14T11:05:22;48430.00;;;-141.90;100.00
5298;BME280;14738;42.668;23.250;2023-05-14T11:07:55;48416.09;;;-141.90;100.00
5298;BME280;14738;42.668;23.250;2023-05-14T11:10:21;48418.09;;;-141.90;100.00
5298;BME280;14738;42.668;23.250;2023-05-14T11:12:50;48410.16;;;-141.90;100.00
5298;BME280;14738;42.668;23.250;2023-05-14T11:15:20;48441.91;;;-141.90;100.00
5298;BME280;14738;42.668;23.250;2023-05-14T11:17:47;48414.13;;;-141.90;100.00
5298;BME280;14738;42.668;23.250;2023-05-14T11:20:13;48428.03;;;-141.90;100.00
5298;BME280;14738;42.668;23.250;2023-05-14T11:22:40;48390.31;;;-141.90;100.00
5298;BME280;14738;42.668;23.250;2023-05-14T11:25:07;48426.03;;;-141.90;100.00
5298;BME280;14738;42.668;23.250;2023-05-14T11:27:34;48418.09;;;-141.90;100.00
5298;BME280;14738;42.668;23.250;2023-05-14T11:30:00;48445.88;;;-141.90;100.00
5298;BME280;14738;42.668;23.250;2023-05-14T11:32:26;48430.00;;;-141.90;100.00
5298;BME280;14738;42.668;23.250;2023-05-14T11:34:52;48428.03;;;-141.90;100.00
5298;BME280;14738;42.668;23.250;2023-05-14T11:37:18;48402.22;;;-141.90;100.00
5298;BME280;14738;42.668;23.250;2023-05-14T11:39:50;48422.06;;;-141.90;100.00
5298;BME280;14738;42.668;23.250;2023-05-14T11:42:18;48422.06;;;-141.90;100.00
5298;BME280;14738;42.668;23.250;2023-05-14T11:44:49;48414.13;;;-141.90;100.00
5298;BME280;14738;42.668;23.250;2023-05-14T11:47:16;48402.22;;;-141.90;100.00
5298;BME280;14738;42.668;23.250;2023-05-14T11:49:42;48414.13;;;-141.90;100.00
5298;BME280;14738;42.668;23.250;2023-05-14T11:52:09;48418.09;;;-141.90;100.00
5298;BME280;14738;42.668;23.250;2023-05-14T11:54:36;48410.16;;;-141.90;100.00
5298;BME280;14738;42.668;23.250;2023-05-14T11:57:15;48410.16;;;-141.90;100.00
5298;BME280;14738;42.668;23.250;2023-05-14T11:59:42;48412.13;;;-141.90;100.00
5298;BME280;14738;42.668;23.250;2023-05-14T12:02:10;48394.28;;;-141.90;100.00
5298;BME280;14738;42.668;23.250;2023-05-14T12:04:36;48422.06;;;-141.90;100.00
5298;BME280;14738;42.668;23.250;2023-05-14T12:07:07;48406.19;;;-141.90;100.00
5298;BME280;14738;42.668;23.250;2023-05-14T12:09:36;48406.19;;;-141.90;100.00
5298;BME280;14738;42.668;23.250;2023-05-14T12:12:12;48433.97;;;-141.90;100.00
5298;BME280;14738;42.668;23.250;2023-05-14T12:14:39;48451.84;;;-141.90;100.00
5298;BME280;14738;42.668;23.250;2023-05-14T12:17:17;48390.31;;;-141.90;100.00
5298;BME280;14738;42.668;23.250;2023-05-14T12:19:45;48410.16;;;-141.90;100.00
5298;BME280;14738;42.668;23.250;2023-05-14T12:22:13;48394.28;;;-141.90;100.00
5298;BME280;14738;42.668;23.250;2023-05-14T12:24:39;48406.19;;;-141.90;100.00
5298;BME280;14738;42.668;23.250;2023-05-14T12:27:05;48445.88;;;-141.90;100.00
5298;BME280;14738;42.668;23.250;2023-05-14T12:29:35;48437.94;;;-141.90;100.00
5298;BME280;14738;42.668;23.250;2023-05-14T12:32:01;48433.97;;;-141.90;100.00
5298;BME280;14738;42.668;23.250;2023-05-14T12:34:28;48439.94;;;-141.90;100.00
5298;BME280;14738;42.668;23.250;2023-05-14T12:36:54;48394.28;;;-141.90;100.00
5298;BME280;14738;42.668;23.250;2023-05-14T12:39:19;48432.00;;;-141.90;100.00
5298;BME280;14738;42.668;23.250;2023-05-14T12:41:45;48424.06;;;-141.90;100.00
5298;BME280;14738;42.668;23.250;2023-05-14T12:44:10;48433.97;;;-141.90;100.00
5298;BME280;14738;42.668;23.250;2023-05-14T12:46:36;48430.00;;;-141.90;100.00
5298;BME280;14738;42.668;23.250;2023-05-14T12:49:01;48422.06;;;-141.90;100.00
5298;BME280;14738;42.668;23.250;2023-05-14T12:51:26;48433.97;;;-141.90;100.00
5298;BME280;14738;42.668;23.250;2023-05-14T12:53:54;48410.16;;;-141.90;100.00
5298;BME280;14738;42.668;23.250;2023-05-14T12:56:19;48388.31;;;-141.90;100.00
5298;BME280;14738;42.668;23.250;2023-05-14T12:58:45;48445.88;;;-141.90;100.00
5298;BME280;14738;42.668;23.250;2023-05-14T13:01:11;48430.00;;;-141.90;100.00
5298;BME280;14738;42.668;23.250;2023-05-14T13:03:37;48422.06;;;-141.90;100.00
5298;BME280;14738;42.668;23.250;2023-05-14T13:06:02;48433.97;;;-141.90;100.00
5298;BME280;14738;42.668;23.250;2023-05-14T13:08:28;48406.19;;;-141.90;100.00
5298;BME280;14738;42.668;23.250;2023-05-14T13:10:54;48437.94;;;-141.90;100.00
5298;BME280;14738;42.668;23.250;2023-05-14T13:13:20;48400.22;;;-141.90;100.00
5298;BME280;14738;42.668;23.250;2023-05-14T13:15:46;48441.91;;;-141.90;100.00
5298;BME280;14738;42.668;23.250;2023-05-14T13:18:12;48416.09;;;-141.90;100.00
5298;BME280;14738;42.668;23.250;2023-05-14T13:20:38;48410.16;;;-141.90;100.00
5298;BME280;14738;42.668;23.250;2023-05-14T13:23:03;48420.09;;;-141.90;100.00
5298;BME280;14738;42.668;23.250;2023-05-14T13:25:29;48443.91;;;-141.90;100.00
5298;BME280;14738;42.668;23.250;2023-05-14T13:27:54;48416.09;;;-141.90;100.00
5298;BME280;14738;42.668;23.250;2023-05-14T13:30:20;48416.09;;;-141.90;100.00
5298;BME280;14738;42.668;23.250;2023-05-14T13:32:45;48451.84;;;-141.90;100.00
5298;BME280;14738;42.668;23.250;2023-05-14T13:35:11;48430.00;;;-141.90;100.00
5298;BME280;14738;42.668;23.250;2023-05-14T13:37:37;48426.03;;;-141.90;100.00
5298;BME280;14738;42.668;23.250;2023-05-14T13:40:03;48410.16;;;-141.90;100.00
5298;BME280;14738;42.668;23.250;2023-05-14T13:42:29;48410.16;;;-141.90;100.00
5298;BME280;14738;42.668;23.250;2023-05-14T13:44:56;48441.91;;;-141.90;100.00
5298;BME280;14738;42.668;23.250;2023-05-14T13:47:21;48430.00;;;-141.90;100.00